sensor_id;sensor_type;location;lat;lon;timestamp;P1;durP1;ratioP1;P2;durP2;ratioP2
70213;SDS011;60138;55.808;37.078;2023-04-01T00:00:52;20.33;;;11.27;;
70213;SDS011;60138;55.808;37.078;2023-04-01T00:03:18;18.25;;;10.75;;
70213;SDS011;60138;55.808;37.078;2023-04-01T00:05:45;21.35;;;10.93;;
70213;SDS011;60138;55.808;37.078;2023-04-01T00:08:11;20.90;;;10.10;;
70213;SDS011;60138;55.808;37.078;2023-04-01T00:10:37;15.93;;;10.13;;
70213;SDS011;60138;55.808;37.078;2023-04-01T00:13:03;16.17;;;9.90;;
70213;SDS011;60138;55.808;37.078;2023-04-01T00:15:29;17.47;;;11.07;;
70213;SDS011;60138;55.808;37.078;2023-04-01T00:17:55;20.40;;;11.68;;
70213;SDS011;60138;55.808;37.078;2023-04-01T00:20:21;20.43;;;11.23;;
70213;SDS011;60138;55.808;37.078;2023-04-01T00:22:46;18.00;;;10.68;;
70213;SDS011;60138;55.808;37.078;2023-04-01T00:25:12;17.80;;;10.27;;
70213;SDS011;60138;55.808;37.078;2023-04-01T00:27:39;17.17;;;9.63;;
70213;SDS011;60138;55.808;37.078;2023-04-01T00:30:05;17.50;;;11.13;;
70213;SDS011;60138;55.808;37.078;2023-04-01T00:32:31;18.33;;;11.52;;
70213;SDS011;60138;55.808;37.078;2023-04-01T00:34:57;22.13;;;12.03;;
70213;SDS011;60138;55.808;37.078;2023-04-01T00:37:22;17.75;;;11.80;;
70213;SDS011;60138;55.808;37.078;2023-04-01T00:39:48;19.63;;;12.47;;
70213;SDS011;60138;55.808;37.078;2023-04-01T00:42:14;17.05;;;10.40;;
70213;SDS011;60138;55.808;37.078;2023-04-01T00:44:40;18.98;;;11.80;;
70213;SDS011;60138;55.808;37.078;2023-04-01T00:47:06;21.58;;;12.02;;
70213;SDS011;60138;55.808;37.078;2023-04-01T00:49:33;24.13;;;12.70;;
70213;SDS011;60138;55.808;37.078;2023-04-01T00:52:05;20.27;;;11.80;;
70213;SDS011;60138;55.808;37.078;2023-04-01T00:54:33;21.10;;;11.75;;
70213;SDS011;60138;55.808;37.078;2023-04-01T00:59:42;19.47;;;11.47;;
70213;SDS011;60138;55.808;37.078;2023-04-01T01:02:11;16.83;;;11.27;;
70213;SDS011;60138;55.808;37.078;2023-04-01T01:04:37;21.58;;;12.32;;
70213;SDS011;60138;55.808;37.078;2023-04-01T01:23:57;19.52;;;11.13;;
70213;SDS011;60138;55.808;37.078;2023-04-01T01:26:53;18.97;;;10.30;;
70213;SDS011;60138;55.808;37.078;2023-04-01T01:37:46;19.85;;;11.60;;
70213;SDS011;60138;55.808;37.078;2023-04-01T01:40:16;23.37;;;11.67;;
70213;SDS011;60138;55.808;37.078;2023-04-01T01:42:44;21.48;;;11.15;;
70213;SDS011;60138;55.808;37.078;2023-04-01T01:45:14;18.23;;;11.70;;
70213;SDS011;60138;55.808;37.078;2023-04-01T01:47:44;18.63;;;11.02;;
70213;SDS011;60138;55.808;37.078;2023-04-01T01:50:11;19.65;;;11.63;;
70213;SDS011;60138;55.808;37.078;2023-04-01T01:52:38;20.50;;;11.40;;
70213;SDS011;60138;55.808;37.078;2023-04-01T01:55:27;21.60;;;11.73;;
70213;SDS011;60138;55.808;37.078;2023-04-01T01:57:59;24.42;;;12.52;;
70213;SDS011;60138;55.808;37.078;2023-04-01T02:00:33;22.03;;;11.73;;
70213;SDS011;60138;55.808;37.078;2023-04-01T02:03:00;20.13;;;10.90;;
70213;SDS011;60138;55.808;37.078;2023-04-01T02:05:27;20.63;;;11.77;;
70213;SDS011;60138;55.808;37.078;2023-04-01T02:08:01;19.80;;;11.02;;
70213;SDS011;60138;55.808;37.078;2023-04-01T02:10:39;22.88;;;12.43;;
70213;SDS011;60138;55.808;37.078;2023-04-01T02:13:15;21.67;;;12.68;;
70213;SDS011;60138;55.808;37.078;2023-04-01T02:16:08;20.45;;;11.88;;
70213;SDS011;60138;55.808;37.078;2023-04-01T02:18:42;20.60;;;11.68;;
70213;SDS011;60138;55.808;37.078;2023-04-01T02:21:10;21.85;;;12.20;;
70213;SDS011;60138;55.808;37.078;2023-04-01T02:23:38;26.83;;;13.80;;
70213;SDS011;60138;55.808;37.078;2023-04-01T02:26:05;28.48;;;13.55;;
70213;SDS011;60138;55.808;37.078;2023-04-01T02:28:34;24.00;;;12.95;;
70213;SDS011;60138;55.808;37.078;2023-04-01T02:31:03;25.60;;;14.60;;
70213;SDS011;60138;55.808;37.078;2023-04-01T02:33:29;23.02;;;13.65;;
70213;SDS011;60138;55.808;37.078;2023-04-01T02:35:57;28.63;;;13.77;;
70213;SDS011;60138;55.808;37.078;2023-04-01T02:38:24;24.83;;;13.07;;
70213;SDS011;60138;55.808;37.078;2023-04-01T02:40:51;27.40;;;14.18;;
70213;SDS011;60138;55.808;37.078;2023-04-01T02:43:22;24.05;;;13.38;;
70213;SDS011;60138;55.808;37.078;2023-04-01T02:45:48;26.20;;;13.23;;
70213;SDS011;60138;55.808;37.078;2023-04-01T02:48:14;25.02;;;13.90;;
70213;SDS011;60138;55.808;37.078;2023-04-01T02:50:39;26.97;;;14.27;;
70213;SDS011;60138;55.808;37.078;2023-04-01T02:53:05;27.02;;;13.88;;
70213;SDS011;60138;55.808;37.078;2023-04-01T02:55:32;26.33;;;13.40;;
70213;SDS011;60138;55.808;37.078;2023-04-01T02:57:59;23.02;;;12.48;;
70213;SDS011;60138;55.808;37.078;2023-04-01T03:00:26;24.20;;;12.52;;
70213;SDS011;60138;55.808;37.078;2023-04-01T03:02:52;26.15;;;12.98;;
70213;SDS011;60138;55.808;37.078;2023-04-01T03:05:18;26.37;;;13.37;;
70213;SDS011;60138;55.808;37.078;2023-04-01T03:07:45;24.95;;;12.65;;
70213;SDS011;60138;55.808;37.078;2023-04-01T03:10:11;25.55;;;14.18;;
70213;SDS011;60138;55.808;37.078;2023-04-01T03:12:38;30.55;;;15.75;;
70213;SDS011;60138;55.808;37.078;2023-04-01T03:15:03;27.67;;;14.57;;
70213;SDS011;60138;55.808;37.078;2023-04-01T03:17:30;26.77;;;14.60;;
70213;SDS011;60138;55.808;37.078;2023-04-01T03:19:55;26.00;;;12.80;;
70213;SDS011;60138;55.808;37.078;2023-04-01T03:22:21;24.70;;;14.07;;
70213;SDS011;60138;55.808;37.078;2023-04-01T03:24:47;25.00;;;13.00;;
70213;SDS011;60138;55.808;37.078;2023-04-01T03:27:13;26.05;;;13.18;;
70213;SDS011;60138;55.808;37.078;2023-04-01T03:29:39;27.20;;;13.55;;
70213;SDS011;60138;55.808;37.078;2023-04-01T03:32:05;28.20;;;12.83;;
70213;SDS011;60138;55.808;37.078;2023-04-01T03:34:31;30.55;;;12.50;;
70213;SDS011;60138;55.808;37.078;2023-04-01T03:36:57;32.13;;;14.27;;
70213;SDS011;60138;55.808;37.078;2023-04-01T03:39:23;31.13;;;12.35;;
70213;SDS011;60138;55.808;37.078;2023-04-01T03:41:49;28.03;;;11.70;;
70213;SDS011;60138;55.808;37.078;2023-04-01T03:44:15;34.75;;;12.85;;
70213;SDS011;60138;55.808;37.078;2023-04-01T03:46:41;32.70;;;13.85;;
70213;SDS011;60138;55.808;37.078;2023-04-01T03:49:07;35.15;;;13.45;;
70213;SDS011;60138;55.808;37.078;2023-04-01T03:51:34;33.97;;;13.80;;
70213;SDS011;60138;55.808;37.078;2023-04-01T03:53:59;28.58;;;12.13;;
70213;SDS011;60138;55.808;37.078;2023-04-01T03:56:25;35.13;;;14.20;;
70213;SDS011;60138;55.808;37.078;2023-04-01T03:58:51;32.22;;;13.05;;
70213;SDS011;60138;55.808;37.078;2023-04-01T04:01:18;29.87;;;13.53;;
70213;SDS011;60138;55.808;37.078;2023-04-01T04:03:46;29.25;;;13.10;;
70213;SDS011;60138;55.808;37.078;2023-04-01T04:06:13;31.55;;;12.65;;
70213;SDS011;60138;55.808;37.078;2023-04-01T04:08:39;31.43;;;12.27;;
70213;SDS011;60138;55.808;37.078;2023-04-01T04:11:05;30.40;;;13.45;;
70213;SDS011;60138;55.808;37.078;2023-04-01T04:13:31;32.10;;;12.35;;
70213;SDS011;60138;55.808;37.078;2023-04-01T04:16:00;29.98;;;11.73;;
70213;SDS011;60138;55.808;37.078;2023-04-01T04:18:29;33.10;;;12.20;;
70213;SDS011;60138;55.808;37.078;2023-04-01T04:20:55;33.40;;;14.43;;
70213;SDS011;60138;55.808;37.078;2023-04-01T04:23:21;37.00;;;13.75;;
70213;SDS011;60138;55.808;37.078;2023-04-01T04:25:58;26.38;;;12.23;;
70213;SDS011;60138;55.808;37.078;2023-04-01T04:28:32;26.42;;;12.13;;
70213;SDS011;60138;55.808;37.078;2023-04-01T04:31:00;26.37;;;11.90;;
70213;SDS011;60138;55.808;37.078;2023-04-01T04:33:27;33.95;;;13.32;;
70213;SDS011;60138;55.808;37.078;2023-04-01T04:35:54;32.47;;;12.50;;
70213;SDS011;60138;55.808;37.078;2023-04-01T04:38:22;27.42;;;12.63;;
70213;SDS011;60138;55.808;37.078;2023-04-01T04:40:48;25.17;;;11.57;;
70213;SDS011;60138;55.808;37.078;2023-04-01T04:43:14;23.67;;;11.77;;
70213;SDS011;60138;55.808;37.078;2023-04-01T04:45:42;24.60;;;11.80;;
70213;SDS011;60138;55.808;37.078;2023-04-01T04:48:09;24.85;;;11.77;;
70213;SDS011;60138;55.808;37.078;2023-04-01T04:50:36;26.67;;;10.95;;
70213;SDS011;60138;55.808;37.078;2023-04-01T04:53:02;21.50;;;10.90;;
70213;SDS011;60138;55.808;37.078;2023-04-01T04:55:29;24.02;;;10.77;;
70213;SDS011;60138;55.808;37.078;2023-04-01T04:58:14;23.23;;;11.07;;
70213;SDS011;60138;55.808;37.078;2023-04-01T05:00:43;26.30;;;11.30;;
70213;SDS011;60138;55.808;37.078;2023-04-01T05:03:17;30.42;;;13.30;;
70213;SDS011;60138;55.808;37.078;2023-04-01T05:05:47;29.90;;;12.33;;
70213;SDS011;60138;55.808;37.078;2023-04-01T05:08:14;28.10;;;12.00;;
70213;SDS011;60138;55.808;37.078;2023-04-01T05:10:40;29.13;;;11.67;;
70213;SDS011;60138;55.808;37.078;2023-04-01T05:13:06;27.70;;;12.18;;
70213;SDS011;60138;55.808;37.078;2023-04-01T05:15:32;30.15;;;11.82;;
70213;SDS011;60138;55.808;37.078;2023-04-01T05:17:58;30.27;;;11.97;;
70213;SDS011;60138;55.808;37.078;2023-04-01T05:20:23;30.63;;;12.18;;
70213;SDS011;60138;55.808;37.078;2023-04-01T05:22:49;30.85;;;12.93;;
70213;SDS011;60138;55.808;37.078;2023-04-01T05:25:15;33.50;;;13.43;;
70213;SDS011;60138;55.808;37.078;2023-04-01T05:27:41;35.10;;;13.55;;
70213;SDS011;60138;55.808;37.078;2023-04-01T05:30:07;30.75;;;12.88;;
70213;SDS011;60138;55.808;37.078;2023-04-01T05:32:55;28.17;;;11.75;;
70213;SDS011;60138;55.808;37.078;2023-04-01T05:35:21;27.35;;;11.88;;
70213;SDS011;60138;55.808;37.078;2023-04-01T05:37:46;27.98;;;12.20;;
70213;SDS011;60138;55.808;37.078;2023-04-01T05:40:12;30.90;;;12.30;;
70213;SDS011;60138;55.808;37.078;2023-04-01T05:42:38;30.33;;;11.67;;
70213;SDS011;60138;55.808;37.078;2023-04-01T05:45:04;28.08;;;12.60;;
70213;SDS011;60138;55.808;37.078;2023-04-01T05:47:48;28.95;;;12.23;;
70213;SDS011;60138;55.808;37.078;2023-04-01T05:50:16;27.47;;;13.20;;
70213;SDS011;60138;55.808;37.078;2023-04-01T05:52:43;29.33;;;12.57;;
70213;SDS011;60138;55.808;37.078;2023-04-01T05:55:09;30.23;;;12.32;;
70213;SDS011;60138;55.808;37.078;2023-04-01T05:57:34;29.20;;;13.55;;
70213;SDS011;60138;55.808;37.078;2023-04-01T06:00:00;27.33;;;12.10;;
70213;SDS011;60138;55.808;37.078;2023-04-01T06:02:26;30.23;;;12.23;;
70213;SDS011;60138;55.808;37.078;2023-04-01T06:04:54;30.73;;;15.10;;
70213;SDS011;60138;55.808;37.078;2023-04-01T06:07:28;29.15;;;12.35;;
70213;SDS011;60138;55.808;37.078;2023-04-01T06:09:54;23.10;;;11.75;;
70213;SDS011;60138;55.808;37.078;2023-04-01T06:31:08;26.15;;;12.65;;
70213;SDS011;60138;55.808;37.078;2023-04-01T06:39:27;22.83;;;11.05;;
70213;SDS011;60138;55.808;37.078;2023-04-01T06:42:13;26.67;;;13.65;;
70213;SDS011;60138;55.808;37.078;2023-04-01T06:50:44;19.63;;;10.27;;
70213;SDS011;60138;55.808;37.078;2023-04-01T06:54:01;21.92;;;10.77;;
70213;SDS011;60138;55.808;37.078;2023-04-01T06:56:51;22.13;;;10.30;;
70213;SDS011;60138;55.808;37.078;2023-04-01T06:59:27;21.98;;;10.25;;
70213;SDS011;60138;55.808;37.078;2023-04-01T07:01:57;23.08;;;12.45;;
70213;SDS011;60138;55.808;37.078;2023-04-01T07:04:28;20.57;;;9.97;;
70213;SDS011;60138;55.808;37.078;2023-04-01T07:07:43;24.58;;;10.57;;
70213;SDS011;60138;55.808;37.078;2023-04-01T07:09:59;23.08;;;10.65;;
70213;SDS011;60138;55.808;37.078;2023-04-01T07:15:28;18.05;;;11.18;;
70213;SDS011;60138;55.808;37.078;2023-04-01T07:18:10;19.40;;;9.93;;
70213;SDS011;60138;55.808;37.078;2023-04-01T07:20:47;22.25;;;11.05;;
70213;SDS011;60138;55.808;37.078;2023-04-01T07:23:22;20.70;;;10.45;;
70213;SDS011;60138;55.808;37.078;2023-04-01T07:26:23;18.17;;;9.80;;
70213;SDS011;60138;55.808;37.078;2023-04-01T07:29:25;19.38;;;10.57;;
70213;SDS011;60138;55.808;37.078;2023-04-01T07:32:08;18.23;;;8.97;;
70213;SDS011;60138;55.808;37.078;2023-04-01T07:35:02;17.38;;;9.32;;
70213;SDS011;60138;55.808;37.078;2023-04-01T08:06:40;19.83;;;9.35;;
70213;SDS011;60138;55.808;37.078;2023-04-01T08:09:19;15.20;;;7.95;;
70213;SDS011;60138;55.808;37.078;2023-04-01T08:12:41;16.65;;;8.80;;
70213;SDS011;60138;55.808;37.078;2023-04-01T08:15:57;15.13;;;7.90;;
70213;SDS011;60138;55.808;37.078;2023-04-01T08:18:54;19.52;;;9.27;;
70213;SDS011;60138;55.808;37.078;2023-04-01T08:21:35;15.55;;;8.77;;
70213;SDS011;60138;55.808;37.078;2023-04-01T08:24:17;14.82;;;8.75;;
70213;SDS011;60138;55.808;37.078;2023-04-01T08:26:53;15.23;;;7.63;;
70213;SDS011;60138;55.808;37.078;2023-04-01T08:29:26;15.87;;;7.43;;
70213;SDS011;60138;55.808;37.078;2023-04-01T08:32:12;16.23;;;8.73;;
70213;SDS011;60138;55.808;37.078;2023-04-01T08:34:42;19.63;;;9.20;;
70213;SDS011;60138;55.808;37.078;2023-04-01T08:37:30;17.92;;;8.57;;
70213;SDS011;60138;55.808;37.078;2023-04-01T08:40:21;15.32;;;8.82;;
70213;SDS011;60138;55.808;37.078;2023-04-01T08:43:11;14.20;;;6.57;;
70213;SDS011;60138;55.808;37.078;2023-04-01T09:13:55;12.73;;;6.18;;
70213;SDS011;60138;55.808;37.078;2023-04-01T09:19:17;13.65;;;7.13;;
70213;SDS011;60138;55.808;37.078;2023-04-01T09:25:12;11.70;;;6.43;;
70213;SDS011;60138;55.808;37.078;2023-04-01T09:28:42;10.98;;;6.80;;
70213;SDS011;60138;55.808;37.078;2023-04-01T09:53:11;8.90;;;5.73;;
70213;SDS011;60138;55.808;37.078;2023-04-01T10:39:17;6.70;;;3.85;;
70213;SDS011;60138;55.808;37.078;2023-04-01T10:44:45;4.70;;;3.50;;
70213;SDS011;60138;55.808;37.078;2023-04-01T10:50:24;7.63;;;3.87;;
70213;SDS011;60138;55.808;37.078;2023-04-01T10:53:31;5.43;;;3.53;;
70213;SDS011;60138;55.808;37.078;2023-04-01T11:02:56;4.85;;;3.90;;
70213;SDS011;60138;55.808;37.078;2023-04-01T11:20:08;5.90;;;4.03;;
70213;SDS011;60138;55.808;37.078;2023-04-01T11:25:46;6.55;;;3.83;;
70213;SDS011;60138;55.808;37.078;2023-04-01T11:28:53;8.20;;;4.47;;
70213;SDS011;60138;55.808;37.078;2023-04-01T11:37:09;11.20;;;5.18;;
70213;SDS011;60138;55.808;37.078;2023-04-01T11:40:52;10.38;;;5.50;;
70213;SDS011;60138;55.808;37.078;2023-04-01T11:44:00;9.10;;;5.35;;
70213;SDS011;60138;55.808;37.078;2023-04-01T11:49:56;7.77;;;4.33;;
70213;SDS011;60138;55.808;37.078;2023-04-01T11:55:35;7.35;;;5.05;;
70213;SDS011;60138;55.808;37.078;2023-04-01T12:20:01;8.07;;;3.95;;
70213;SDS011;60138;55.808;37.078;2023-04-01T12:22:59;6.57;;;4.37;;
70213;SDS011;60138;55.808;37.078;2023-04-01T12:39:37;7.85;;;4.63;;
70213;SDS011;60138;55.808;37.078;2023-04-01T12:50:23;9.93;;;5.70;;
70213;SDS011;60138;55.808;37.078;2023-04-01T12:55:49;10.32;;;7.13;;
70213;SDS011;60138;55.808;37.078;2023-04-01T13:18:04;8.90;;;4.50;;
70213;SDS011;60138;55.808;37.078;2023-04-01T13:20:59;7.93;;;4.28;;
70213;SDS011;60138;55.808;37.078;2023-04-01T13:29:40;7.43;;;4.20;;
70213;SDS011;60138;55.808;37.078;2023-04-01T13:46:06;10.57;;;5.95;;
70213;SDS011;60138;55.808;37.078;2023-04-01T14:05:15;12.00;;;6.13;;
70213;SDS011;60138;55.808;37.078;2023-04-01T14:11:38;12.63;;;6.97;;
70213;SDS011;60138;55.808;37.078;2023-04-01T14:16:41;14.45;;;7.63;;
70213;SDS011;60138;55.808;37.078;2023-04-01T14:24:28;13.77;;;7.40;;
70213;SDS011;60138;55.808;37.078;2023-04-01T14:51:34;12.25;;;6.22;;
70213;SDS011;60138;55.808;37.078;2023-04-01T14:54:17;10.68;;;6.97;;
70213;SDS011;60138;55.808;37.078;2023-04-01T14:56:50;12.23;;;6.20;;
70213;SDS011;60138;55.808;37.078;2023-04-01T14:59:27;9.30;;;5.63;;
70213;SDS011;60138;55.808;37.078;2023-04-01T15:21:36;17.15;;;10.77;;
70213;SDS011;60138;55.808;37.078;2023-04-01T15:40:22;13.13;;;8.50;;
70213;SDS011;60138;55.808;37.078;2023-04-01T15:48:20;15.15;;;9.07;;
70213;SDS011;60138;55.808;37.078;2023-04-01T15:51:54;13.07;;;7.68;;
70213;SDS011;60138;55.808;37.078;2023-04-01T16:02:53;17.23;;;10.53;;
70213;SDS011;60138;55.808;37.078;2023-04-01T16:05:35;19.35;;;10.50;;
70213;SDS011;60138;55.808;37.078;2023-04-01T16:22:17;19.05;;;11.55;;
70213;SDS011;60138;55.808;37.078;2023-04-01T16:36:33;16.98;;;9.70;;
70213;SDS011;60138;55.808;37.078;2023-04-01T16:47:35;28.80;;;13.93;;
70213;SDS011;60138;55.808;37.078;2023-04-01T16:50:06;17.40;;;9.77;;
70213;SDS011;60138;55.808;37.078;2023-04-01T16:55:34;17.58;;;10.15;;
70213;SDS011;60138;55.808;37.078;2023-04-01T16:58:26;19.53;;;9.30;;
70213;SDS011;60138;55.808;37.078;2023-04-01T17:01:06;17.27;;;9.55;;
70213;SDS011;60138;55.808;37.078;2023-04-01T17:14:02;22.50;;;11.80;;
70213;SDS011;60138;55.808;37.078;2023-04-01T17:30:35;23.13;;;12.38;;
70213;SDS011;60138;55.808;37.078;2023-04-01T17:38:48;16.83;;;10.97;;
70213;SDS011;60138;55.808;37.078;2023-04-01T17:59:14;23.83;;;12.82;;
70213;SDS011;60138;55.808;37.078;2023-04-01T18:02:00;23.20;;;11.43;;
70213;SDS011;60138;55.808;37.078;2023-04-01T18:18:04;16.00;;;9.75;;
70213;SDS011;60138;55.808;37.078;2023-04-01T18:21:12;14.60;;;9.53;;
70213;SDS011;60138;55.808;37.078;2023-04-01T18:24:10;17.42;;;9.38;;
70213;SDS011;60138;55.808;37.078;2023-04-01T18:26:39;17.55;;;9.75;;
70213;SDS011;60138;55.808;37.078;2023-04-01T18:31:47;13.68;;;9.85;;
70213;SDS011;60138;55.808;37.078;2023-04-01T18:34:29;13.97;;;9.47;;
70213;SDS011;60138;55.808;37.078;2023-04-01T18:37:12;16.05;;;9.60;;
70213;SDS011;60138;55.808;37.078;2023-04-01T18:43:21;15.27;;;9.68;;
70213;SDS011;60138;55.808;37.078;2023-04-01T18:45:58;16.10;;;8.95;;
70213;SDS011;60138;55.808;37.078;2023-04-01T18:51:17;15.13;;;9.95;;
70213;SDS011;60138;55.808;37.078;2023-04-01T18:56:27;15.75;;;9.48;;
70213;SDS011;60138;55.808;37.078;2023-04-01T19:05:00;14.13;;;8.10;;
70213;SDS011;60138;55.808;37.078;2023-04-01T19:13:09;15.52;;;10.55;;
70213;SDS011;60138;55.808;37.078;2023-04-01T19:15:57;14.60;;;9.27;;
70213;SDS011;60138;55.808;37.078;2023-04-01T19:21:57;14.80;;;10.00;;
70213;SDS011;60138;55.808;37.078;2023-04-01T19:24:39;17.13;;;10.57;;
70213;SDS011;60138;55.808;37.078;2023-04-01T19:38:26;16.95;;;9.68;;
70213;SDS011;60138;55.808;37.078;2023-04-01T19:47:07;13.30;;;8.93;;
70213;SDS011;60138;55.808;37.078;2023-04-01T19:52:38;17.90;;;10.43;;
70213;SDS011;60138;55.808;37.078;2023-04-01T19:58:13;17.03;;;9.87;;
70213;SDS011;60138;55.808;37.078;2023-04-01T20:00:33;14.43;;;9.48;;
70213;SDS011;60138;55.808;37.078;2023-04-01T20:03:03;14.73;;;10.00;;
70213;SDS011;60138;55.808;37.078;2023-04-01T20:05:44;16.65;;;9.77;;
70213;SDS011;60138;55.808;37.078;2023-04-01T20:16:05;16.25;;;9.52;;
70213;SDS011;60138;55.808;37.078;2023-04-01T20:18:37;15.05;;;9.38;;
70213;SDS011;60138;55.808;37.078;2023-04-01T20:24:34;18.10;;;9.13;;
70213;SDS011;60138;55.808;37.078;2023-04-01T20:26:50;20.05;;;10.50;;
70213;SDS011;60138;55.808;37.078;2023-04-01T20:29:35;14.77;;;9.45;;
70213;SDS011;60138;55.808;37.078;2023-04-01T20:32:30;18.17;;;10.85;;
70213;SDS011;60138;55.808;37.078;2023-04-01T20:40:49;16.80;;;9.70;;
70213;SDS011;60138;55.808;37.078;2023-04-01T20:46:10;17.50;;;9.68;;
70213;SDS011;60138;55.808;37.078;2023-04-01T20:51:29;21.87;;;12.03;;
70213;SDS011;60138;55.808;37.078;2023-04-01T20:56:43;21.67;;;11.88;;
70213;SDS011;60138;55.808;37.078;2023-04-01T21:08:11;17.10;;;10.38;;
70213;SDS011;60138;55.808;37.078;2023-04-01T21:11:08;19.55;;;11.88;;
70213;SDS011;60138;55.808;37.078;2023-04-01T21:18:55;17.20;;;11.03;;
70213;SDS011;60138;55.808;37.078;2023-04-01T21:29:44;19.63;;;11.18;;
70213;SDS011;60138;55.808;37.078;2023-04-01T22:03:11;16.50;;;9.38;;
70213;SDS011;60138;55.808;37.078;2023-04-01T22:05:51;15.47;;;9.77;;
70213;SDS011;60138;55.808;37.078;2023-04-01T22:11:28;18.15;;;11.18;;
70213;SDS011;60138;55.808;37.078;2023-04-01T22:14:12;16.73;;;10.73;;
70213;SDS011;60138;55.808;37.078;2023-04-01T22:16:53;17.08;;;10.57;;
70213;SDS011;60138;55.808;37.078;2023-04-01T22:22:26;16.05;;;10.07;;
70213;SDS011;60138;55.808;37.078;2023-04-01T22:27:46;16.63;;;10.37;;
70213;SDS011;60138;55.808;37.078;2023-04-01T22:30:36;17.15;;;10.70;;
70213;SDS011;60138;55.808;37.078;2023-04-01T22:33:11;19.77;;;12.18;;
70213;SDS011;60138;55.808;37.078;2023-04-01T22:44:13;18.80;;;10.85;;
70213;SDS011;60138;55.808;37.078;2023-04-01T22:50:17;20.10;;;12.07;;
70213;SDS011;60138;55.808;37.078;2023-04-01T22:52:47;22.98;;;11.98;;
70213;SDS011;60138;55.808;37.078;2023-04-01T22:55:25;17.97;;;10.50;;
70213;SDS011;60138;55.808;37.078;2023-04-01T22:58:00;18.58;;;10.90;;
70213;SDS011;60138;55.808;37.078;2023-04-01T23:00:39;18.23;;;11.77;;
70213;SDS011;60138;55.808;37.078;2023-04-01T23:05:53;24.55;;;11.98;;
70213;SDS011;60138;55.808;37.078;2023-04-01T23:13:24;19.85;;;12.32;;
70213;SDS011;60138;55.808;37.078;2023-04-01T23:15:56;20.83;;;11.10;;
70213;SDS011;60138;55.808;37.078;2023-04-01T23:18:27;21.80;;;13.18;;
70213;SDS011;60138;55.808;37.078;2023-04-01T23:24:18;18.60;;;10.77;;
70213;SDS011;60138;55.808;37.078;2023-04-01T23:27:05;20.50;;;11.90;;
70213;SDS011;60138;55.808;37.078;2023-04-01T23:29:37;20.23;;;11.02;;
70213;SDS011;60138;55.808;37.078;2023-04-01T23:32:03;20.80;;;12.48;;
70213;SDS011;60138;55.808;37.078;2023-04-01T23:34:33;19.40;;;11.70;;
70213;SDS011;60138;55.808;37.078;2023-04-01T23:37:02;20.38;;;11.48;;
70213;SDS011;60138;55.808;37.078;2023-04-01T23:39:36;20.95;;;13.55;;
70213;SDS011;60138;55.808;37.078;2023-04-01T23:42:07;21.38;;;11.70;;
70213;SDS011;60138;55.808;37.078;2023-04-01T23:44:58;20.95;;;11.95;;
70213;SDS011;60138;55.808;37.078;2023-04-01T23:47:46;20.50;;;11.47;;
70213;SDS011;60138;55.808;37.078;2023-04-01T23:50:14;20.42;;;12.13;;
70213;SDS011;60138;55.808;37.078;2023-04-01T23:52:46;22.58;;;12.57;;
70213;SDS011;60138;55.808;37.078;2023-04-01T23:55:15;22.00;;;12.13;;
70213;SDS011;60138;55.808;37.078;2023-04-01T23:57:43;24.33;;;14.73;;
